sensor_id;sensor_type;location;lat;lon;timestamp;P1;durP1;ratioP1;P2;durP2;ratioP2
10440;SDS011;5268;49.346;9.522;2023-05-14T03:07:49;5.00;;;4.50;;
10440;SDS011;5268;49.346;9.522;2023-05-14T03:12:52;6.30;;;4.53;;
10440;SDS011;5268;49.346;9.522;2023-05-14T03:17:54;5.22;;;4.72;;
10440;SDS011;5268;49.346;9.522;2023-05-14T03:22:57;5.35;;;4.80;;
10440;SDS011;5268;49.346;9.522;2023-05-14T03:27:59;6.30;;;4.70;;
10440;SDS011;5268;49.346;9.522;2023-05-14T03:33:01;6.95;;;4.57;;
10440;SDS011;5268;49.346;9.522;2023-05-14T03:38:05;5.07;;;4.50;;
10440;SDS011;5268;49.346;9.522;2023-05-14T03:43:07;6.03;;;4.50;;
10440;SDS011;5268;49.346;9.522;2023-05-14T03:48:09;5.20;;;4.50;;
10440;SDS011;5268;49.346;9.522;2023-05-14T03:53:13;7.35;;;5.43;;
10440;SDS011;5268;49.346;9.522;2023-05-14T03:58:15;5.97;;;4.68;;
10440;SDS011;5268;49.346;9.522;2023-05-14T04:03:17;6.18;;;5.03;;
10440;SDS011;5268;49.346;9.522;2023-05-14T04:08:20;6.30;;;5.10;;
10440;SDS011;5268;49.346;9.522;2023-05-14T04:13:22;7.80;;;7.00;;
10440;SDS011;5268;49.346;9.522;2023-05-14T04:18:24;6.35;;;5.75;;
10440;SDS011;5268;49.346;9.522;2023-05-14T04:23:28;7.13;;;6.43;;
10440;SDS011;5268;49.346;9.522;2023-05-14T04:28:30;6.68;;;6.00;;
10440;SDS011;5268;49.346;9.522;2023-05-14T04:33:33;7.68;;;5.63;;
10440;SDS011;5268;49.346;9.522;2023-05-14T04:38:36;10.43;;;6.32;;
10440;SDS011;5268;49.346;9.522;2023-05-14T04:43:38;7.75;;;5.93;;
10440;SDS011;5268;49.346;9.522;2023-05-14T04:48:40;7.05;;;5.93;;
10440;SDS011;5268;49.346;9.522;2023-05-14T04:53:44;7.13;;;5.93;;
10440;SDS011;5268;49.346;9.522;2023-05-14T04:58:46;7.00;;;6.05;;
10440;SDS011;5268;49.346;9.522;2023-05-14T05:03:48;6.70;;;6.03;;
10440;SDS011;5268;49.346;9.522;2023-05-14T05:08:51;6.95;;;6.22;;
10440;SDS011;5268;49.346;9.522;2023-05-14T05:13:53;7.75;;;6.80;;
10440;SDS011;5268;49.346;9.522;2023-05-14T05:18:56;7.10;;;6.40;;
10440;SDS011;5268;49.346;9.522;2023-05-14T05:23:59;6.80;;;6.20;;
10440;SDS011;5268;49.346;9.522;2023-05-14T05:29:01;7.60;;;6.68;;
10440;SDS011;5268;49.346;9.522;2023-05-14T05:34:04;7.90;;;7.10;;
10440;SDS011;5268;49.346;9.522;2023-05-14T05:39:07;7.75;;;6.72;;
10440;SDS011;5268;49.346;9.522;2023-05-14T05:44:09;7.78;;;6.53;;
10440;SDS011;5268;49.346;9.522;2023-05-14T05:49:11;8.32;;;7.50;;
10440;SDS011;5268;49.346;9.522;2023-05-14T05:54:15;7.53;;;6.80;;
10440;SDS011;5268;49.346;9.522;2023-05-14T05:59:17;8.15;;;6.70;;
10440;SDS011;5268;49.346;9.522;2023-05-14T06:04:19;9.30;;;7.78;;
10440;SDS011;5268;49.346;9.522;2023-05-14T06:09:22;9.15;;;7.90;;
10440;SDS011;5268;49.346;9.522;2023-05-14T06:14:24;7.97;;;7.18;;
10440;SDS011;5268;49.346;9.522;2023-05-14T06:19:26;8.25;;;7.32;;
10440;SDS011;5268;49.346;9.522;2023-05-14T06:24:29;9.38;;;7.55;;
10440;SDS011;5268;49.346;9.522;2023-05-14T06:29:32;8.73;;;7.82;;
10440;SDS011;5268;49.346;9.522;2023-05-14T06:34:34;8.60;;;7.80;;
10440;SDS011;5268;49.346;9.522;2023-05-14T06:39:38;8.15;;;7.35;;
10440;SDS011;5268;49.346;9.522;2023-05-14T06:44:43;8.13;;;7.32;;
10440;SDS011;5268;49.346;9.522;2023-05-14T06:49:47;9.07;;;7.80;;
10440;SDS011;5268;49.346;9.522;2023-05-14T06:55:02;8.80;;;7.90;;
10440;SDS011;5268;49.346;9.522;2023-05-14T07:00:05;8.30;;;7.50;;
10440;SDS011;5268;49.346;9.522;2023-05-14T07:05:08;24.90;;;12.75;;
10440;SDS011;5268;49.346;9.522;2023-05-14T07:10:12;7.55;;;6.72;;
10440;SDS011;5268;49.346;9.522;2023-05-14T07:15:14;7.82;;;7.03;;
10440;SDS011;5268;49.346;9.522;2023-05-14T07:20:16;7.82;;;6.55;;
10440;SDS011;5268;49.346;9.522;2023-05-14T07:25:19;7.00;;;6.30;;
10440;SDS011;5268;49.346;9.522;2023-05-14T07:30:21;7.00;;;6.30;;
10440;SDS011;5268;49.346;9.522;2023-05-14T07:35:23;6.85;;;6.15;;
10440;SDS011;5268;49.346;9.522;2023-05-14T07:40:26;6.88;;;6.22;;
10440;SDS011;5268;49.346;9.522;2023-05-14T07:45:28;6.15;;;5.50;;
10440;SDS011;5268;49.346;9.522;2023-05-14T07:50:30;6.40;;;5.75;;
10440;SDS011;5268;49.346;9.522;2023-05-14T07:55:34;6.47;;;5.88;;
10440;SDS011;5268;49.346;9.522;2023-05-14T08:00:36;6.70;;;6.10;;
10440;SDS011;5268;49.346;9.522;2023-05-14T08:05:38;7.07;;;6.05;;
10440;SDS011;5268;49.346;9.522;2023-05-14T08:10:42;6.32;;;5.72;;
10440;SDS011;5268;49.346;9.522;2023-05-14T08:15:44;6.53;;;5.93;;
10440;SDS011;5268;49.346;9.522;2023-05-14T08:20:46;6.57;;;5.97;;
10440;SDS011;5268;49.346;9.522;2023-05-14T08:25:49;6.20;;;5.60;;
10440;SDS011;5268;49.346;9.522;2023-05-14T08:30:51;6.28;;;5.68;;
10440;SDS011;5268;49.346;9.522;2023-05-14T08:35:53;5.45;;;4.95;;
10440;SDS011;5268;49.346;9.522;2023-05-14T08:40:58;6.07;;;5.47;;
10440;SDS011;5268;49.346;9.522;2023-05-14T08:46:01;5.97;;;5.38;;
10440;SDS011;5268;49.346;9.522;2023-05-14T08:51:06;5.97;;;5.38;;
10440;SDS011;5268;49.346;9.522;2023-05-14T08:56:10;6.72;;;6.03;;
10440;SDS011;5268;49.346;9.522;2023-05-14T09:01:13;5.85;;;5.28;;
10440;SDS011;5268;49.346;9.522;2023-05-14T09:06:15;5.60;;;5.10;;
10440;SDS011;5268;49.346;9.522;2023-05-14T09:11:19;7.07;;;6.38;;
10440;SDS011;5268;49.346;9.522;2023-05-14T09:16:21;7.38;;;6.65;;
10440;SDS011;5268;49.346;9.522;2023-05-14T09:21:25;8.52;;;5.07;;
10440;SDS011;5268;49.346;9.522;2023-05-14T09:26:31;7.18;;;6.53;;
10440;SDS011;5268;49.346;9.522;2023-05-14T09:31:33;6.00;;;5.50;;
10440;SDS011;5268;49.346;9.522;2023-05-14T09:36:36;5.88;;;5.28;;
10440;SDS011;5268;49.346;9.522;2023-05-14T09:41:39;6.88;;;6.15;;
10440;SDS011;5268;49.346;9.522;2023-05-14T09:46:42;5.85;;;5.25;;
10440;SDS011;5268;49.346;9.522;2023-05-14T09:51:45;6.43;;;5.35;;
10440;SDS011;5268;49.346;9.522;2023-05-14T09:56:48;5.97;;;5.38;;
10440;SDS011;5268;49.346;9.522;2023-05-14T10:01:50;6.22;;;5.07;;
10440;SDS011;5268;49.346;9.522;2023-05-14T10:06:53;5.65;;;5.15;;
10440;SDS011;5268;49.346;9.522;2023-05-14T10:11:58;5.07;;;4.40;;
10440;SDS011;5268;49.346;9.522;2023-05-14T10:17:02;5.57;;;5.07;;
10440;SDS011;5268;49.346;9.522;2023-05-14T10:22:06;5.88;;;5.38;;
10440;SDS011;5268;49.346;9.522;2023-05-14T10:27:12;6.97;;;5.70;;
10440;SDS011;5268;49.346;9.522;2023-05-14T10:32:17;5.65;;;5.15;;
10440;SDS011;5268;49.346;9.522;2023-05-14T10:37:21;5.88;;;5.38;;
10440;SDS011;5268;49.346;9.522;2023-05-14T10:42:27;5.00;;;4.60;;
10440;SDS011;5268;49.346;9.522;2023-05-14T10:47:34;5.90;;;5.30;;
10440;SDS011;5268;49.346;9.522;2023-05-14T10:52:39;6.70;;;5.10;;
10440;SDS011;5268;49.346;9.522;2023-05-14T10:57:44;5.28;;;4.78;;
10440;SDS011;5268;49.346;9.522;2023-05-14T11:02:46;5.55;;;5.05;;
10440;SDS011;5268;49.346;9.522;2023-05-14T11:07:49;5.00;;;4.50;;
10440;SDS011;5268;49.346;9.522;2023-05-14T11:12:54;5.03;;;4.60;;
10440;SDS011;5268;49.346;9.522;2023-05-14T11:17:57;4.60;;;4.20;;
10440;SDS011;5268;49.346;9.522;2023-05-14T11:22:59;6.13;;;4.43;;
10440;SDS011;5268;49.346;9.522;2023-05-14T11:28:03;4.90;;;4.40;;
10440;SDS011;5268;49.346;9.522;2023-05-14T11:33:05;5.22;;;4.55;;
10440;SDS011;5268;49.346;9.522;2023-05-14T11:38:12;4.90;;;4.40;;
10440;SDS011;5268;49.346;9.522;2023-05-14T11:43:16;4.82;;;4.43;;
10440;SDS011;5268;49.346;9.522;2023-05-14T11:48:18;5.10;;;4.63;;
10440;SDS011;5268;49.346;9.522;2023-05-14T11:53:23;4.70;;;4.25;;
10440;SDS011;5268;49.346;9.522;2023-05-14T11:58:28;4.93;;;4.43;;
10440;SDS011;5268;49.346;9.522;2023-05-14T12:03:32;4.90;;;4.40;;
10440;SDS011;5268;49.346;9.522;2023-05-14T12:08:35;5.05;;;4.20;;
10440;SDS011;5268;49.346;9.522;2023-05-14T12:13:39;4.78;;;4.28;;
10440;SDS011;5268;49.346;9.522;2023-05-14T12:18:41;4.88;;;4.40;;
10440;SDS011;5268;49.346;9.522;2023-05-14T12:23:43;4.55;;;4.00;;
10440;SDS011;5268;49.346;9.522;2023-05-14T12:28:46;4.80;;;4.30;;
10440;SDS011;5268;49.346;9.522;2023-05-14T12:33:48;5.00;;;3.83;;
10440;SDS011;5268;49.346;9.522;2023-05-14T12:38:56;5.38;;;4.25;;
10440;SDS011;5268;49.346;9.522;2023-05-14T12:44:02;5.03;;;4.53;;
10440;SDS011;5268;49.346;9.522;2023-05-14T12:49:05;4.60;;;4.20;;
10440;SDS011;5268;49.346;9.522;2023-05-14T12:54:07;4.97;;;4.53;;
10440;SDS011;5268;49.346;9.522;2023-05-14T12:59:11;5.35;;;4.85;;
10440;SDS011;5268;49.346;9.522;2023-05-14T13:04:13;5.35;;;4.75;;
10440;SDS011;5268;49.346;9.522;2023-05-14T13:09:15;4.70;;;4.20;;
10440;SDS011;5268;49.346;9.522;2023-05-14T13:14:18;4.53;;;4.13;;
10440;SDS011;5268;49.346;9.522;2023-05-14T13:19:20;4.65;;;4.20;;
10440;SDS011;5268;49.346;9.522;2023-05-14T13:24:22;4.20;;;3.80;;
10440;SDS011;5268;49.346;9.522;2023-05-14T13:29:26;4.40;;;4.00;;
10440;SDS011;5268;49.346;9.522;2023-05-14T13:34:30;4.50;;;4.10;;
10440;SDS011;5268;49.346;9.522;2023-05-14T13:39:32;4.13;;;3.72;;
10440;SDS011;5268;49.346;9.522;2023-05-14T13:44:35;4.60;;;3.75;;
10440;SDS011;5268;49.346;9.522;2023-05-14T13:49:37;3.85;;;3.55;;
10440;SDS011;5268;49.346;9.522;2023-05-14T13:54:39;4.55;;;4.15;;
10440;SDS011;5268;49.346;9.522;2023-05-14T13:59:43;4.40;;;4.00;;
10440;SDS011;5268;49.346;9.522;2023-05-14T14:04:47;3.47;;;3.17;;
10440;SDS011;5268;49.346;9.522;2023-05-14T14:09:49;3.83;;;3.53;;
10440;SDS011;5268;49.346;9.522;2023-05-14T14:14:53;4.85;;;3.55;;
10440;SDS011;5268;49.346;9.522;2023-05-14T14:19:55;3.40;;;3.10;;
10440;SDS011;5268;49.346;9.522;2023-05-14T14:24:57;4.70;;;3.35;;
10440;SDS011;5268;49.346;9.522;2023-05-14T14:30:00;3.60;;;3.30;;
10440;SDS011;5268;49.346;9.522;2023-05-14T14:35:02;3.80;;;3.42;;
10440;SDS011;5268;49.346;9.522;2023-05-14T14:40:05;3.75;;;3.45;;
10440;SDS011;5268;49.346;9.522;2023-05-14T14:45:10;3.85;;;3.30;;
10440;SDS011;5268;49.346;9.522;2023-05-14T14:50:12;3.55;;;3.25;;
10440;SDS011;5268;49.346;9.522;2023-05-14T14:55:14;3.38;;;3.08;;
10440;SDS011;5268;49.346;9.522;2023-05-14T15:00:18;3.75;;;3.05;;
10440;SDS011;5268;49.346;9.522;2023-05-14T15:05:20;3.45;;;3.15;;
10440;SDS011;5268;49.346;9.522;2023-05-14T15:10:22;3.45;;;3.08;;
10440;SDS011;5268;49.346;9.522;2023-05-14T15:15:25;3.40;;;3.10;;
10440;SDS011;5268;49.346;9.522;2023-05-14T15:20:27;3.67;;;3.38;;
10440;SDS011;5268;49.346;9.522;2023-05-14T15:25:29;3.55;;;3.25;;
10440;SDS011;5268;49.346;9.522;2023-05-14T15:30:33;3.47;;;3.17;;
10440;SDS011;5268;49.346;9.522;2023-05-14T15:35:35;3.53;;;3.22;;
10440;SDS011;5268;49.346;9.522;2023-05-14T15:40:37;3.38;;;3.08;;
10440;SDS011;5268;49.346;9.522;2023-05-14T15:45:41;3.22;;;2.92;;
10440;SDS011;5268;49.346;9.522;2023-05-14T15:50:44;3.60;;;3.30;;
10440;SDS011;5268;49.346;9.522;2023-05-14T15:55:48;3.15;;;2.85;;
10440;SDS011;5268;49.346;9.522;2023-05-14T16:00:51;2.80;;;2.60;;
10440;SDS011;5268;49.346;9.522;2023-05-14T16:05:53;3.03;;;2.75;;
10440;SDS011;5268;49.346;9.522;2023-05-14T16:10:55;3.55;;;2.50;;
10440;SDS011;5268;49.346;9.522;2023-05-14T16:15:59;2.90;;;2.60;;
10440;SDS011;5268;49.346;9.522;2023-05-14T16:21:01;2.50;;;2.30;;
10440;SDS011;5268;49.346;9.522;2023-05-14T16:26:04;2.50;;;2.30;;
10440;SDS011;5268;49.346;9.522;2023-05-14T16:31:07;2.55;;;2.13;;
10440;SDS011;5268;49.346;9.522;2023-05-14T16:36:09;2.80;;;2.50;;
10440;SDS011;5268;49.346;9.522;2023-05-14T16:41:11;2.70;;;2.50;;
10440;SDS011;5268;49.346;9.522;2023-05-14T16:46:14;3.05;;;2.70;;
10440;SDS011;5268;49.346;9.522;2023-05-14T16:51:16;2.60;;;2.40;;
10440;SDS011;5268;49.346;9.522;2023-05-14T16:56:18;2.92;;;2.72;;
10440;SDS011;5268;49.346;9.522;2023-05-14T17:01:21;2.60;;;2.40;;
10440;SDS011;5268;49.346;9.522;2023-05-14T17:06:24;3.00;;;2.70;;
10440;SDS011;5268;49.346;9.522;2023-05-14T17:11:26;2.67;;;2.47;;
10440;SDS011;5268;49.346;9.522;2023-05-14T17:16:29;3.75;;;3.40;;
10440;SDS011;5268;49.346;9.522;2023-05-14T17:21:31;3.40;;;3.00;;
10440;SDS011;5268;49.346;9.522;2023-05-14T17:26:33;3.30;;;2.70;;
10440;SDS011;5268;49.346;9.522;2023-05-14T17:31:38;3.15;;;2.90;;
10440;SDS011;5268;49.346;9.522;2023-05-14T17:36:40;2.80;;;2.60;;
10440;SDS011;5268;49.346;9.522;2023-05-14T17:41:42;3.97;;;2.83;;
10440;SDS011;5268;49.346;9.522;2023-05-14T17:46:45;2.97;;;2.67;;
10440;SDS011;5268;49.346;9.522;2023-05-14T17:51:48;3.58;;;3.00;;
10440;SDS011;5268;49.346;9.522;2023-05-14T17:56:50;3.22;;;2.78;;
10440;SDS011;5268;49.346;9.522;2023-05-14T18:01:54;3.83;;;2.95;;
10440;SDS011;5268;49.346;9.522;2023-05-14T18:06:56;3.80;;;2.97;;
10440;SDS011;5268;49.346;9.522;2023-05-14T18:12:00;4.28;;;3.05;;
10440;SDS011;5268;49.346;9.522;2023-05-14T18:17:03;3.47;;;3.17;;
10440;SDS011;5268;49.346;9.522;2023-05-14T18:22:06;3.53;;;3.20;;
10440;SDS011;5268;49.346;9.522;2023-05-14T18:27:07;3.53;;;3.22;;
10440;SDS011;5268;49.346;9.522;2023-05-14T18:32:11;3.95;;;3.13;;
10440;SDS011;5268;49.346;9.522;2023-05-14T18:37:13;3.60;;;3.30;;
10440;SDS011;5268;49.346;9.522;2023-05-14T18:42:15;3.30;;;3.00;;
10440;SDS011;5268;49.346;9.522;2023-05-14T18:47:19;3.63;;;3.33;;
10440;SDS011;5268;49.346;9.522;2023-05-14T18:52:21;3.28;;;2.97;;
10440;SDS011;5268;49.346;9.522;2023-05-14T18:57:24;4.15;;;3.50;;
10440;SDS011;5268;49.346;9.522;2023-05-14T19:02:33;4.07;;;3.53;;
10440;SDS011;5268;49.346;9.522;2023-05-14T19:07:35;4.38;;;3.75;;
10440;SDS011;5268;49.346;9.522;2023-05-14T19:12:37;3.63;;;3.33;;
10440;SDS011;5268;49.346;9.522;2023-05-14T19:17:41;3.75;;;3.30;;
10440;SDS011;5268;49.346;9.522;2023-05-14T19:22:43;5.20;;;3.75;;
10440;SDS011;5268;49.346;9.522;2023-05-14T19:27:45;3.40;;;3.10;;
10440;SDS011;5268;49.346;9.522;2023-05-14T19:32:51;4.80;;;3.75;;
10440;SDS011;5268;49.346;9.522;2023-05-14T19:37:53;4.40;;;4.00;;
10440;SDS011;5268;49.346;9.522;2023-05-14T19:42:55;4.35;;;3.95;;
10440;SDS011;5268;49.346;9.522;2023-05-14T19:47:58;4.22;;;3.83;;
10440;SDS011;5268;49.346;9.522;2023-05-14T19:53:00;4.15;;;3.75;;
10440;SDS011;5268;49.346;9.522;2023-05-14T19:58:03;4.28;;;3.88;;
10440;SDS011;5268;49.346;9.522;2023-05-14T20:03:06;5.78;;;3.92;;
10440;SDS011;5268;49.346;9.522;2023-05-14T20:08:08;3.92;;;3.53;;
10440;SDS011;5268;49.346;9.522;2023-05-14T20:13:10;5.18;;;3.65;;
10440;SDS011;5268;49.346;9.522;2023-05-14T20:18:14;4.65;;;4.10;;
10440;SDS011;5268;49.346;9.522;2023-05-14T20:23:16;5.47;;;4.22;;
10440;SDS011;5268;49.346;9.522;2023-05-14T20:28:19;5.22;;;4.15;;
10440;SDS011;5268;49.346;9.522;2023-05-14T20:33:22;4.20;;;3.70;;
10440;SDS011;5268;49.346;9.522;2023-05-14T20:38:25;4.72;;;4.10;;
10440;SDS011;5268;49.346;9.522;2023-05-14T20:43:28;4.40;;;4.00;;
10440;SDS011;5268;49.346;9.522;2023-05-14T20:48:31;5.65;;;4.10;;
10440;SDS011;5268;49.346;9.522;2023-05-14T20:53:33;4.97;;;4.25;;
10440;SDS011;5268;49.346;9.522;2023-05-14T20:58:38;4.63;;;4.10;;
10440;SDS011;5268;49.346;9.522;2023-05-14T21:03:41;5.82;;;4.07;;
10440;SDS011;5268;49.346;9.522;2023-05-14T21:08:43;6.40;;;4.32;;
10440;SDS011;5268;49.346;9.522;2023-05-14T21:13:45;5.95;;;4.22;;
10440;SDS011;5268;49.346;9.522;2023-05-14T21:18:49;5.00;;;4.18;;
10440;SDS011;5268;49.346;9.522;2023-05-14T21:23:51;4.43;;;4.03;;
10440;SDS011;5268;49.346;9.522;2023-05-14T21:28:53;4.53;;;4.00;;
10440;SDS011;5268;49.346;9.522;2023-05-14T21:33:56;5.80;;;4.68;;
10440;SDS011;5268;49.346;9.522;2023-05-14T21:38:58;6.40;;;5.50;;
10440;SDS011;5268;49.346;9.522;2023-05-14T21:44:00;4.50;;;3.88;;
10440;SDS011;5268;49.346;9.522;2023-05-14T21:49:03;5.82;;;3.90;;
10440;SDS011;5268;49.346;9.522;2023-05-14T21:54:06;4.53;;;3.50;;
